| time (UTC) | temp F | wind direction | speed MPH | gust MPH | rain 1hr in | rain 24hr in | rain mn in | humidity % | barometer mb |
| 20260502190514 | 75 | 24 | 0.0 | 4.0 | 0.00 | 0.00 | 0.00 | 31 | 1017.7 |
| 20260502190115 | 75 | 82 | 1.0 | 4.0 | 0.00 | 0.00 | 0.00 | 31 | 1017.7 |
| 20260502185532 | 74 | 342 | 1.0 | 4.0 | 0.00 | 0.00 | 0.00 | 33 | 1017.8 |
| 20260502185035 | 74 | 317 | 1.0 | 4.0 | 0.00 | 0.00 | 0.00 | 33 | 1018.1 |
| 20260502184622 | 73 | 284 | 1.0 | 5.0 | 0.00 | 0.00 | 0.00 | 34 | 1018.0 |
| 20260502184017 | 73 | 60 | 2.0 | 5.0 | 0.00 | 0.00 | 0.00 | 35 | 1018.1 |
| 20260502183545 | 73 | 246 | 2.0 | 4.0 | 0.00 | 0.00 | 0.00 | 38 | 1018.2 |
| 20260502183126 | 72 | 315 | 0.0 | 4.0 | 0.00 | 0.00 | 0.00 | 40 | 1018.1 |
| 20260502182520 | 70 | 219 | 0.0 | 3.0 | 0.00 | 0.00 | 0.00 | 42 | 1018.3 |
| 20260502182025 | 69 | 259 | 1.0 | 3.0 | 0.00 | 0.00 | 0.00 | 42 | 1018.1 |
| 20260502181558 | 68 | 142 | 1.0 | 3.0 | 0.00 | 0.00 | 0.00 | 44 | 1018.3 |
| 20260502181036 | 68 | 316 | 0.0 | 4.0 | 0.00 | 0.00 | 0.00 | 42 | 1018.4 |
| 20260502180532 | 68 | 67 | 0.0 | 4.0 | 0.00 | 0.00 | 0.00 | 45 | 1018.3 |
| 20260502180120 | 68 | 252 | 0.0 | 3.0 | 0.00 | 0.00 | 0.00 | 43 | 1018.3 |
| 20260502170519 | 65 | 67 | 1.0 | 3.0 | 0.00 | 0.00 | 0.00 | 48 | 1018.7 |
| 20260502164031 | 63 | 229 | 0.0 | 3.0 | 0.00 | 0.00 | 0.00 | 49 | 1018.8 |
| 20260502163517 | 63 | 294 | 0.0 | 2.0 | 0.00 | 0.00 | 0.00 | 52 | 1018.7 |
| 20260502163110 | 62 | 152 | 0.0 | 3.0 | 0.00 | 0.00 | 0.00 | 51 | 1018.7 |
| 20260502162519 | 62 | 149 | 0.0 | 3.0 | 0.00 | 0.00 | 0.00 | 51 | 1018.7 |
| 20260502162045 | 62 | 76 | 0.0 | 1.0 | 0.00 | 0.00 | 0.00 | 54 | 1018.7 |
| 20260502161626 | 61 | 24 | 0.0 | 1.0 | 0.00 | 0.00 | 0.00 | 54 | 1018.7 |
| 20260502161038 | 61 | 24 | 0.0 | 2.0 | 0.00 | 0.00 | 0.00 | 55 | 1018.6 |
| 20260502160536 | 61 | 21 | 0.0 | 2.0 | 0.00 | 0.00 | 0.00 | 55 | 1018.7 |
| 20260502160136 | 60 | 335 | 0.0 | 1.0 | 0.00 | 0.00 | 0.00 | 54 | 1018.5 |
| 20260502152035 | 56 | 15 | 0.0 | 2.0 | 0.00 | 0.00 | 0.00 | 63 | 1018.9 |
| 20260502151542 | 56 | 49 | 0.0 | 1.0 | 0.00 | 0.00 | 0.00 | 63 | 1018.9 |
| 20260502151041 | 56 | 49 | 0.0 | 2.0 | 0.00 | 0.00 | 0.00 | 65 | 1018.9 |
| 20260502150524 | 56 | 49 | 0.0 | 2.0 | 0.00 | 0.00 | 0.00 | 62 | 1018.9 |
| 20260502150110 | 55 | 82 | 0.0 | 1.0 | 0.00 | 0.00 | 0.00 | 59 | 1018.9 |
| 20260502130523 | 48 | 241 | 0.0 | 3.0 | 0.00 | 0.00 | 0.00 | 69 | 1018.2 |
| 20260502130110 | 49 | 245 | 2.0 | 4.0 | 0.00 | 0.00 | 0.00 | 69 | 1018.2 |
| 20260502123524 | 50 | 224 | 0.0 | 3.0 | 0.00 | 0.00 | 0.00 | 66 | 1018.3 |
| 20260502123128 | 50 | 265 | 0.0 | 4.0 | 0.00 | 0.00 | 0.00 | 66 | 1018.3 |
| 20260502122543 | 50 | 226 | 3.0 | 4.0 | 0.00 | 0.00 | 0.00 | 66 | 1018.2 |
| 20260502122027 | 50 | 252 | 2.0 | 4.0 | 0.00 | 0.00 | 0.00 | 65 | 1018.1 |
| 20260502121612 | 50 | 221 | 2.0 | 4.0 | 0.00 | 0.00 | 0.00 | 65 | 1018.1 |
| 20260502121028 | 50 | 225 | 2.0 | 4.0 | 0.00 | 0.00 | 0.00 | 66 | 1018.2 |
| 20260502120527 | 50 | 277 | 1.0 | 4.0 | 0.00 | 0.00 | 0.00 | 66 | 1018.1 |
| 20260502120137 | 51 | 236 | 2.0 | 4.0 | 0.00 | 0.00 | 0.00 | 65 | 1018.2 |
| 20260502115541 | 51 | 227 | 2.0 | 4.0 | 0.00 | 0.00 | 0.00 | 65 | 1018.2 |
| 20260502115021 | 51 | 217 | 2.0 | 4.0 | 0.00 | 0.00 | 0.00 | 65 | 1018.2 |
| 20260502114610 | 50 | 233 | 2.0 | 4.0 | 0.00 | 0.00 | 0.00 | 65 | 1018.2 |
| 20260502114023 | 50 | 244 | 3.0 | 4.0 | 0.00 | 0.00 | 0.00 | 65 | 1018.2 |
| 20260502113540 | 50 | 246 | 2.0 | 4.0 | 0.00 | 0.00 | 0.00 | 66 | 1018.2 |
| 20260502113132 | 50 | 248 | 2.0 | 4.0 | 0.00 | 0.00 | 0.00 | 64 | 1018.2 |
| 20260502112529 | 50 | 257 | 2.0 | 3.0 | 0.00 | 0.00 | 0.00 | 68 | 1018.0 |
| 20260502112036 | 51 | 246 | 1.0 | 3.0 | 0.00 | 0.00 | 0.00 | 64 | 1018.0 |
| 20260502111614 | 51 | 245 | 2.0 | 3.0 | 0.00 | 0.00 | 0.00 | 65 | 1018.3 |
| 20260502111031 | 51 | 242 | 1.0 | 3.0 | 0.00 | 0.00 | 0.00 | 65 | 1018.3 |
| 20260502110532 | 50 | 237 | 2.0 | 3.0 | 0.00 | 0.00 | 0.00 | 65 | 1018.3 |
| 20260502110106 | 50 | 282 | 1.0 | 4.0 | 0.00 | 0.00 | 0.00 | 67 | 1018.3 |
| 20260502105525 | 50 | 236 | 2.0 | 4.0 | 0.00 | 0.00 | 0.00 | 67 | 1018.2 |
| 20260502105042 | 50 | 261 | 2.0 | 3.0 | 0.00 | 0.00 | 0.00 | 66 | 1018.2 |
| 20260502104608 | 50 | 229 | 2.0 | 4.0 | 0.00 | 0.00 | 0.00 | 66 | 1018.2 |
| 20260502104026 | 49 | 243 | 2.0 | 4.0 | 0.00 | 0.00 | 0.00 | 67 | 1018.1 |
| 20260502103518 | 49 | 234 | 2.0 | 3.0 | 0.00 | 0.00 | 0.00 | 69 | 1018.1 |
| 20260502103105 | 49 | 256 | 0.0 | 3.0 | 0.00 | 0.00 | 0.00 | 69 | 1018.0 |
| 20260502102540 | 49 | 248 | 1.0 | 3.0 | 0.00 | 0.00 | 0.00 | 68 | 1018.0 |
| 20260502102032 | 49 | 247 | 2.0 | 3.0 | 0.00 | 0.00 | 0.00 | 68 | 1017.9 |
| 20260502101605 | 49 | 234 | 2.0 | 4.0 | 0.00 | 0.00 | 0.00 | 68 | 1017.9 |
| 20260502101043 | 49 | 243 | 2.0 | 4.0 | 0.00 | 0.00 | 0.00 | 68 | 1017.9 |
| 20260502100523 | 49 | 267 | 1.0 | 4.0 | 0.00 | 0.00 | 0.00 | 67 | 1017.8 |
| 20260502100123 | 50 | 240 | 2.0 | 4.0 | 0.00 | 0.00 | 0.00 | 67 | 1017.8 |
| 20260502091028 | 51 | 229 | 3.0 | 4.0 | 0.00 | 0.00 | 0.00 | 65 | 1017.7 |
| 20260502090520 | 51 | 250 | 2.0 | 4.0 | 0.00 | 0.00 | 0.00 | 64 | 1017.6 |
| 20260502071044 | 54 | 248 | 2.0 | 4.0 | 0.00 | 0.00 | 0.00 | 59 | 1017.5 |
| 20260502070541 | 54 | 236 | 2.0 | 4.0 | 0.00 | 0.00 | 0.00 | 58 | 1017.4 |
| 20260502070114 | 54 | 260 | 2.0 | 5.0 | 0.00 | 0.00 | 0.00 | 59 | 1017.4 |
| 20260502065549 | 54 | 236 | 3.0 | 5.0 | 0.00 | 0.00 | 0.00 | 59 | 1017.5 |
| 20260502065049 | 54 | 240 | 2.0 | 4.0 | 0.00 | 0.00 | 0.00 | 60 | 1017.4 |
| 20260502064614 | 55 | 245 | 2.0 | 3.0 | 0.00 | 0.00 | 0.00 | 59 | 1017.4 |
| 20260502064035 | 55 | 261 | 2.0 | 3.0 | 0.00 | 0.00 | 0.00 | 59 | 1017.5 |
| 20260502063512 | 55 | 236 | 2.0 | 4.0 | 0.00 | 0.00 | 0.00 | 59 | 1017.5 |
| 20260502063136 | 55 | 267 | 2.0 | 4.0 | 0.00 | 0.00 | 0.00 | 58 | 1017.5 |
| 20260502062523 | 55 | 254 | 1.0 | 4.0 | 0.00 | 0.00 | 0.00 | 60 | 1017.5 |
| 20260502062022 | 55 | 246 | 2.0 | 3.0 | 0.00 | 0.00 | 0.00 | 58 | 1017.3 |
| 20260502061559 | 55 | 237 | 2.0 | 3.0 | 0.00 | 0.00 | 0.00 | 58 | 1017.4 |
| 20260502061028 | 56 | 247 | 2.0 | 3.0 | 0.00 | 0.00 | 0.00 | 58 | 1017.4 |
| 20260502060518 | 56 | 236 | 2.0 | 4.0 | 0.00 | 0.00 | 0.00 | 57 | 1017.2 |
| 20260502060125 | 56 | 243 | 2.0 | 4.0 | 0.00 | 0.00 | 0.00 | 56 | 1017.3 |
| 20260502055541 | 56 | 242 | 2.0 | 4.0 | 0.00 | 0.00 | 0.00 | 55 | 1017.3 |
| 20260502055032 | 57 | 238 | 2.0 | 4.0 | 0.00 | 0.00 | 0.00 | 54 | 1017.1 |
| 20260502054615 | 57 | 269 | 2.0 | 5.0 | 0.00 | 0.00 | 0.00 | 53 | 1017.2 |
| 20260502054025 | 56 | 267 | 2.0 | 5.0 | 0.00 | 0.00 | 0.00 | 56 | 1017.3 |
| 20260502053603 | 56 | 263 | 3.0 | 4.0 | 0.00 | 0.00 | 0.00 | 55 | 1017.2 |
| 20260502053113 | 56 | 240 | 2.0 | 4.0 | 0.00 | 0.00 | 0.00 | 54 | 1017.2 |
| 20260502052526 | 56 | 238 | 2.0 | 4.0 | 0.00 | 0.00 | 0.00 | 57 | 1017.2 |
| 20260502052032 | 56 | 236 | 2.0 | 4.0 | 0.00 | 0.00 | 0.00 | 56 | 1017.2 |
| 20260502051600 | 56 | 238 | 2.0 | 4.0 | 0.00 | 0.00 | 0.00 | 56 | 1017.2 |
| 20260502051025 | 55 | 232 | 2.0 | 4.0 | 0.00 | 0.00 | 0.00 | 57 | 1017.2 |
| 20260502050537 | 56 | 250 | 2.0 | 5.0 | 0.00 | 0.00 | 0.00 | 56 | 1017.2 |
| 20260502050142 | 56 | 242 | 3.0 | 5.0 | 0.00 | 0.00 | 0.00 | 55 | 1017.2 |
| 20260502045537 | 56 | 235 | 2.0 | 4.0 | 0.00 | 0.00 | 0.00 | 54 | 1017.0 |
| 20260502045033 | 56 | 227 | 3.0 | 5.0 | 0.00 | 0.00 | 0.00 | 54 | 1016.9 |
| 20260502044615 | 56 | 229 | 3.0 | 5.0 | 0.00 | 0.00 | 0.00 | 54 | 1016.9 |
| 20260502044015 | 56 | 254 | 3.0 | 5.0 | 0.00 | 0.00 | 0.00 | 54 | 1017.0 |
| 20260502043517 | 56 | 242 | 3.0 | 5.0 | 0.00 | 0.00 | 0.00 | 53 | 1016.7 |
| 20260502043122 | 57 | 251 | 2.0 | 4.0 | 0.00 | 0.00 | 0.00 | 53 | 1016.8 |
| 20260502042522 | 57 | 246 | 2.0 | 5.0 | 0.00 | 0.00 | 0.00 | 53 | 1016.7 |
| 20260502042037 | 57 | 255 | 2.0 | 5.0 | 0.00 | 0.00 | 0.00 | 54 | 1016.6 |
| 20260502041625 | 57 | 244 | 2.0 | 4.0 | 0.00 | 0.00 | 0.00 | 53 | 1016.7 |
| 20260502041018 | 57 | 238 | 1.0 | 4.0 | 0.00 | 0.00 | 0.00 | 52 | 1016.5 |
| 20260502040524 | 58 | 233 | 2.0 | 4.0 | 0.00 | 0.00 | 0.00 | 52 | 1016.3 |
| 20260502040045 | 58 | 243 | 2.0 | 5.0 | 0.00 | 0.00 | 0.00 | 50 | 1016.3 |
| 20260502035536 | 58 | 229 | 3.0 | 5.0 | 0.00 | 0.00 | 0.00 | 51 | 1016.1 |
| 20260502035031 | 59 | 242 | 3.0 | 5.0 | 0.00 | 0.00 | 0.00 | 50 | 1016.0 |
| 20260502034555 | 60 | 230 | 3.0 | 5.0 | 0.00 | 0.00 | 0.00 | 49 | 1015.8 |
| 20260502034043 | 60 | 238 | 2.0 | 4.0 | 0.00 | 0.00 | 0.00 | 49 | 1015.7 |
| 20260502033535 | 59 | 234 | 2.0 | 4.0 | 0.00 | 0.00 | 0.00 | 48 | 1015.8 |
| 20260502033133 | 60 | 237 | 2.0 | 4.0 | 0.00 | 0.00 | 0.00 | 49 | 1015.8 |
| 20260502032533 | 61 | 229 | 2.0 | 4.0 | 0.00 | 0.00 | 0.00 | 48 | 1015.8 |
| 20260502032029 | 61 | 242 | 2.0 | 5.0 | 0.00 | 0.00 | 0.00 | 46 | 1015.7 |
| 20260502031610 | 63 | 241 | 3.0 | 5.0 | 0.00 | 0.00 | 0.00 | 45 | 1015.7 |
| 20260502031025 | 64 | 205 | 2.0 | 5.0 | 0.00 | 0.00 | 0.00 | 40 | 1015.5 |
| 20260502030547 | 65 | 238 | 3.0 | 8.0 | 0.00 | 0.00 | 0.00 | 39 | 1015.5 |
| 20260502030145 | 65 | 260 | 3.0 | 8.0 | 0.00 | 0.00 | 0.00 | 40 | 1015.5 |
| 20260502025541 | 64 | 254 | 0.0 | 2.0 | 0.00 | 0.00 | 0.00 | 41 | 1015.5 |
| 20260502025015 | 65 | 211 | 0.0 | 1.0 | 0.00 | 0.00 | 0.00 | 41 | 1015.3 |
| 20260502024637 | 65 | 209 | 0.0 | 0.0 | 0.00 | 0.00 | 0.00 | 41 | 1015.3 |
| 20260502024033 | 65 | 209 | 0.0 | 1.0 | 0.00 | 0.00 | 0.00 | 41 | 1015.5 |
| 20260502023532 | 65 | 209 | 0.0 | 1.0 | 0.00 | 0.00 | 0.00 | 42 | 1015.3 |
| 20260502023134 | 65 | 207 | 0.0 | 2.0 | 0.00 | 0.00 | 0.00 | 42 | 1015.4 |
| 20260502022533 | 66 | 199 | 0.0 | 2.0 | 0.00 | 0.00 | 0.00 | 41 | 1015.2 |
| 20260502022020 | 66 | 173 | 0.0 | 2.0 | 0.00 | 0.00 | 0.00 | 39 | 1015.3 |
| 20260502021626 | 67 | 165 | 0.0 | 1.0 | 0.00 | 0.00 | 0.00 | 38 | 1015.2 |
| 20260502021019 | 67 | 165 | 0.0 | 0.0 | 0.00 | 0.00 | 0.00 | 36 | 1015.3 |
| 20260502020534 | 67 | 165 | 0.0 | 1.0 | 0.00 | 0.00 | 0.00 | 36 | 1015.2 |
| 20260502020135 | 68 | 165 | 0.0 | 2.0 | 0.00 | 0.00 | 0.00 | 38 | 1015.3 |
| 20260502015521 | 68 | 165 | 0.0 | 1.0 | 0.00 | 0.00 | 0.00 | 35 | 1015.2 |
| 20260502015021 | 68 | 165 | 0.0 | 2.0 | 0.00 | 0.00 | 0.00 | 35 | 1015.3 |
| 20260502014624 | 69 | 165 | 0.0 | 3.0 | 0.00 | 0.00 | 0.00 | 34 | 1015.3 |
| 20260502014020 | 69 | 164 | 1.0 | 4.0 | 0.00 | 0.00 | 0.00 | 34 | 1015.1 |
| 20260502013524 | 69 | 208 | 1.0 | 4.0 | 0.00 | 0.00 | 0.00 | 33 | 1015.2 |
| 20260502013149 | 70 | 159 | 1.0 | 4.0 | 0.00 | 0.00 | 0.00 | 32 | 1015.4 |
| 20260502012524 | 70 | 169 | 0.0 | 2.0 | 0.00 | 0.00 | 0.00 | 35 | 1015.3 |
| 20260502012022 | 70 | 169 | 0.0 | 3.0 | 0.00 | 0.00 | 0.00 | 32 | 1015.4 |
| 20260502011613 | 70 | 158 | 1.0 | 3.0 | 0.00 | 0.00 | 0.00 | 31 | 1015.4 |
| 20260502011033 | 71 | 175 | 1.0 | 4.0 | 0.00 | 0.00 | 0.00 | 31 | 1015.5 |
| 20260502010531 | 71 | 192 | 0.0 | 6.0 | 0.00 | 0.00 | 0.00 | 32 | 1015.3 |
| 20260502010133 | 71 | 123 | 2.0 | 6.0 | 0.00 | 0.00 | 0.00 | 30 | 1015.4 |
| 20260502005520 | 72 | 201 | 1.0 | 3.0 | 0.00 | 0.00 | 0.00 | 32 | 1015.4 |
| 20260502005020 | 72 | 115 | 0.0 | 3.0 | 0.00 | 0.00 | 0.00 | 32 | 1015.5 |
| 20260502004638 | 72 | 34 | 1.0 | 3.0 | 0.00 | 0.00 | 0.00 | 32 | 1015.5 |
| 20260502004016 | 72 | 119 | 0.0 | 5.0 | 0.00 | 0.00 | 0.00 | 32 | 1015.5 |
| 20260502003524 | 72 | 67 | 1.0 | 5.0 | 0.00 | 0.00 | 0.00 | 31 | 1015.6 |
| 20260502003117 | 72 | 65 | 0.0 | 3.0 | 0.00 | 0.00 | 0.00 | 31 | 1015.6 |
| 20260502002532 | 72 | 36 | 0.0 | 2.0 | 0.00 | 0.00 | 0.00 | 30 | 1015.7 |
| 20260502002016 | 73 | 294 | 0.0 | 6.0 | 0.00 | 0.00 | 0.00 | 29 | 1015.6 |
| 20260502001618 | 73 | 187 | 0.0 | 2.0 | 0.00 | 0.00 | 0.00 | 28 | 1015.7 |
| 20260502001016 | 72 | 109 | 0.0 | 2.0 | 0.00 | 0.00 | 0.00 | 30 | 1015.6 |
| 20260502000532 | 72 | 105 | 1.0 | 4.0 | 0.00 | 0.00 | 0.00 | 29 | 1015.7 |
| 20260502000118 | 72 | 278 | 1.0 | 4.0 | 0.00 | 0.00 | 0.00 | 29 | 1015.8 |
| 20260501235516 | 72 | 196 | 0.0 | 2.0 | 0.00 | 0.00 | 0.00 | 29 | 1015.8 |
| 20260501235033 | 72 | 181 | 0.0 | 3.0 | 0.00 | 0.00 | 0.00 | 29 | 1015.8 |
| 20260501234641 | 72 | 29 | 0.0 | 6.0 | 0.00 | 0.00 | 0.00 | 28 | 1015.8 |
| 20260501234020 | 73 | 256 | 1.0 | 5.0 | 0.00 | 0.00 | 0.00 | 27 | 1015.9 |
| 20260501233533 | 73 | 82 | 1.0 | 3.0 | 0.00 | 0.00 | 0.00 | 28 | 1015.8 |
| 20260501233131 | 73 | 84 | 1.0 | 3.0 | 0.00 | 0.00 | 0.00 | 27 | 1015.8 |
| 20260501232538 | 74 | 102 | 0.0 | 4.0 | 0.00 | 0.00 | 0.00 | 29 | 1016.0 |
| 20260501232045 | 74 | 80 | 1.0 | 5.0 | 0.00 | 0.00 | 0.00 | 27 | 1015.8 |
| 20260501231633 | 74 | 203 | 1.0 | 4.0 | 0.00 | 0.00 | 0.00 | 27 | 1016.0 |
| 20260501231023 | 74 | 84 | 1.0 | 3.0 | 0.00 | 0.00 | 0.00 | 27 | 1016.1 |
| 20260501230516 | 74 | 32 | 1.0 | 3.0 | 0.00 | 0.00 | 0.00 | 27 | 1016.0 |
| 20260501230113 | 74 | 352 | 1.0 | 5.0 | 0.00 | 0.00 | 0.00 | 27 | 1016.2 |
| 20260501225526 | 75 | 19 | 2.0 | 5.0 | 0.00 | 0.00 | 0.00 | 26 | 1016.2 |
| 20260501225016 | 75 | 281 | 1.0 | 4.0 | 0.00 | 0.00 | 0.00 | 29 | 1016.2 |
| 20260501224650 | 75 | 331 | 1.0 | 4.0 | 0.00 | 0.00 | 0.00 | 28 | 1016.2 |
| 20260501224023 | 75 | 232 | 0.0 | 3.0 | 0.00 | 0.00 | 0.00 | 28 | 1016.3 |
| 20260501223529 | 75 | 192 | 1.0 | 6.0 | 0.00 | 0.00 | 0.00 | 28 | 1016.4 |
| 20260501223107 | 75 | 173 | 0.0 | 6.0 | 0.00 | 0.00 | 0.00 | 26 | 1016.4 |
| 20260501222521 | 76 | 26 | 1.0 | 3.0 | 0.00 | 0.00 | 0.00 | 27 | 1016.6 |
| 20260501222038 | 76 | 28 | 1.0 | 6.0 | 0.00 | 0.00 | 0.00 | 27 | 1016.5 |
| 20260501221643 | 76 | 163 | 2.0 | 6.0 | 0.00 | 0.00 | 0.00 | 26 | 1016.5 |
| 20260501221040 | 76 | 360 | 1.0 | 3.0 | 0.00 | 0.00 | 0.00 | 28 | 1016.4 |
| 20260501220525 | 75 | 55 | 1.0 | 3.0 | 0.00 | 0.00 | 0.00 | 27 | 1016.4 |
| 20260501220112 | 74 | 140 | 0.0 | 4.0 | 0.00 | 0.00 | 0.00 | 26 | 1016.4 |
| 20260501215537 | 74 | 166 | 1.0 | 4.0 | 0.00 | 0.00 | 0.00 | 26 | 1016.5 |
| 20260501215018 | 75 | 175 | 2.0 | 4.0 | 0.00 | 0.00 | 0.00 | 26 | 1016.6 |
| 20260501214608 | 74 | 182 | 1.0 | 5.0 | 0.00 | 0.00 | 0.00 | 29 | 1016.6 |
| 20260501214021 | 73 | 344 | 2.0 | 5.0 | 0.00 | 0.00 | 0.00 | 28 | 1016.6 |
| 20260501213525 | 74 | 178 | 1.0 | 6.0 | 0.00 | 0.00 | 0.00 | 28 | 1016.8 |
| 20260501213114 | 74 | 192 | 1.0 | 7.0 | 0.00 | 0.00 | 0.00 | 25 | 1017.0 |
| 20260501212524 | 74 | 164 | 2.0 | 7.0 | 0.00 | 0.00 | 0.00 | 28 | 1016.9 |
| 20260501212025 | 75 | 148 | 2.0 | 6.0 | 0.00 | 0.00 | 0.00 | 27 | 1016.9 |
| 20260501211651 | 75 | 141 | 2.0 | 5.0 | 0.00 | 0.00 | 0.00 | 26 | 1017.1 |
| 20260501211043 | 75 | 126 | 1.0 | 3.0 | 0.00 | 0.00 | 0.00 | 27 | 1017.1 |
| 20260501210519 | 75 | 167 | 1.0 | 3.0 | 0.00 | 0.00 | 0.00 | 26 | 1017.1 |
| 20260501210159 | 75 | 235 | 1.0 | 6.0 | 0.00 | 0.00 | 0.00 | 24 | 1017.1 |
| 20260501205522 | 75 | 232 | 0.0 | 7.0 | 0.00 | 0.00 | 0.00 | 24 | 1017.2 |
| 20260501205020 | 76 | 196 | 1.0 | 4.0 | 0.00 | 0.00 | 0.00 | 24 | 1017.3 |
| 20260501204647 | 75 | 297 | 1.0 | 5.0 | 0.00 | 0.00 | 0.00 | 24 | 1017.3 |
| 20260501204018 | 75 | 86 | 1.0 | 5.0 | 0.00 | 0.00 | 0.00 | 27 | 1017.3 |
| 20260501203538 | 75 | 68 | 1.0 | 6.0 | 0.00 | 0.00 | 0.00 | 28 | 1017.4 |
| 20260501203115 | 75 | 258 | 2.0 | 6.0 | 0.00 | 0.00 | 0.00 | 25 | 1017.5 |
| 20260501202525 | 75 | 143 | 2.0 | 5.0 | 0.00 | 0.00 | 0.00 | 25 | 1017.6 |
| 20260501202030 | 75 | 141 | 2.0 | 6.0 | 0.00 | 0.00 | 0.00 | 25 | 1017.6 |
| 20260501201643 | 74 | 274 | 2.0 | 5.0 | 0.00 | 0.00 | 0.00 | 25 | 1017.5 |
| 20260501201032 | 74 | 103 | 1.0 | 5.0 | 0.00 | 0.00 | 0.00 | 27 | 1017.6 |
| 20260501200544 | 74 | 157 | 3.0 | 6.0 | 0.00 | 0.00 | 0.00 | 27 | 1017.6 |
| 20260501200202 | 74 | 74 | 1.0 | 4.0 | 0.00 | 0.00 | 0.00 | 27 | 1017.5 |
| 20260501195542 | 74 | 57 | 1.0 | 4.0 | 0.00 | 0.00 | 0.00 | 26 | 1017.6 |
| 20260501195042 | 74 | 155 | 2.0 | 5.0 | 0.00 | 0.00 | 0.00 | 26 | 1017.6 |
| 20260501194706 | 74 | 54 | 1.0 | 3.0 | 0.00 | 0.00 | 0.00 | 26 | 1017.7 |
| 20260501194017 | 73 | 22 | 1.0 | 4.0 | 0.00 | 0.00 | 0.00 | 27 | 1017.5 |
| 20260501193532 | 73 | 69 | 3.0 | 6.0 | 0.00 | 0.00 | 0.00 | 27 | 1017.6 |
| 20260501193124 | 73 | 143 | 1.0 | 6.0 | 0.00 | 0.00 | 0.00 | 27 | 1017.6 |
| 20260501192531 | 73 | 212 | 2.0 | 6.0 | 0.00 | 0.00 | 0.00 | 27 | 1017.7 |
| 20260501192036 | 73 | 214 | 1.0 | 5.0 | 0.00 | 0.00 | 0.00 | 26 | 1017.9 |
| 20260501191634 | 73 | 19 | 2.0 | 6.0 | 0.00 | 0.00 | 0.00 | 26 | 1017.9 |
| 20260501191041 | 73 | 50 | 1.0 | 6.0 | 0.00 | 0.00 | 0.00 | 27 | 1017.9 |